Time;durP1;ratioP1;P1;durP2;ratioP2;P2;SDS_P1;SDS_P2;PMS_P1;PMS_P2;Temp;Humidity;BMP_temperature;BMP_pressure;BME280_temperature;BME280_humidity;BME280_pressure;Samples;Min_cycle;Max_cycle;Signal;HPM_P1;HPM_P2
2023/06/29 03:53:05;;;;;;;1.85;1.85;;;;;;;;;;4921493;29;20228;-67
2023/06/29 03:55:32;;;;;;;1.88;1.77;;;;;;;;;;4923343;29;20206;-66
2023/06/29 03:57:59;;;;;;;1.58;1.58;;;;;;;;;;4923148;29;20236;-66
2023/06/29 04:00:27;;;;;;;1.75;1.75;;;;;;;;;;4923040;29;20229;-67
2023/06/29 04:02:54;;;;;;;1.77;1.67;;;;;;;;;;4923704;29;20208;-67
2023/06/29 04:05:21;;;;;;;1.80;1.70;;;;;;;;;;4923078;29;20279;-67
2023/06/29 04:07:48;;;;;;;1.95;1.85;;;12.80;99.90;;;;;;4920149;29;20202;-67
2023/06/29 04:10:16;;;;;;;2.00;2.00;;;12.80;99.90;;;;;;4919780;29;20624;-67
2023/06/29 04:12:42;;;;;;;1.75;1.65;;;13.20;99.90;;;;;;4919878;29;20221;-66
2023/06/29 04:15:10;;;;;;;1.75;1.75;;;13.60;99.90;;;;;;4920106;29;20213;-66
2023/06/29 04:17:37;;;;;;;1.90;1.90;;;14.00;99.90;;;;;;4919848;29;20210;-66
2023/06/29 04:20:04;;;;;;;1.70;1.70;;;14.50;99.90;;;;;;4919654;29;20209;-66
2023/06/29 04:22:31;;;;;;;2.30;1.98;;;15.00;99.90;;;;;;4919872;29;20201;-66
2023/06/29 04:24:57;;;;;;;2.10;2.00;;;15.50;99.90;;;;;;4919806;29;20212;-66
2023/06/29 04:27:25;;;;;;;2.00;1.85;;;16.00;99.90;;;;;;4919437;29;20704;-66
2023/06/29 04:29:52;;;;;;;1.88;1.77;;;16.70;99.90;;;;;;4919660;29;20210;-66
2023/06/29 04:32:19;;;;;;;1.75;1.65;;;17.30;99.90;;;;;;4919586;29;20224;-66
2023/06/29 04:34:47;;;;;;;1.80;1.80;;;18.10;99.90;;;;;;4919578;29;20205;-66
2023/06/29 04:37:14;;;;;;;2.20;2.08;;;18.80;99.90;;;;;;4919541;29;20300;-66
2023/06/29 04:39:41;;;;;;;2.10;2.00;;;19.40;99.90;;;;;;4919480;29;20212;-66
2023/06/29 04:42:12;;;;;;;1.50;1.50;;;19.90;99.90;;;;;;4919416;29;20221;-67
2023/06/29 04:44:41;;;;;;;2.00;1.90;;;20.20;99.90;;;;;;4919395;29;20193;-66
2023/06/29 04:47:08;;;;;;;1.58;1.48;;;20.60;99.90;;;;;;4919360;29;20576;-67
2023/06/29 04:49:36;;;;;;;1.75;1.65;;;20.80;99.90;;;;;;4919257;29;20205;-67
2023/06/29 04:52:03;;;;;;;1.90;1.80;;;21.20;99.90;;;;;;4919021;29;20237;-67
2023/06/29 04:54:30;;;;;;;2.05;1.95;;;21.60;99.90;;;;;;4918788;29;20216;-67
2023/06/29 04:56:57;;;;;;;2.08;1.98;;;21.80;99.90;;;;;;4918860;29;20219;-67
2023/06/29 04:59:25;;;;;;;2.00;1.90;;;21.80;99.90;;;;;;4919161;29;20211;-67
2023/06/29 05:01:53;;;;;;;1.83;1.73;;;21.90;99.90;;;;;;4919089;29;20225;-67
2023/06/29 05:04:20;;;;;;;2.17;2.00;;;22.00;99.90;;;;;;4918767;29;20204;-67
2023/06/29 05:06:46;;;;;;;1.75;1.65;;;22.40;99.90;;;;;;4918734;29;20547;-68
2023/06/29 05:09:15;;;;;;;2.75;1.60;;;22.90;99.90;;;;;;4918996;29;20208;-67
2023/06/29 05:11:42;;;;;;;1.60;1.50;;;23.60;99.90;;;;;;4918859;29;20228;-69
2023/06/29 05:14:09;;;;;;;1.80;1.80;;;24.30;99.90;;;;;;4918919;29;20269;-67
2023/06/29 05:16:36;;;;;;;1.70;1.60;;;24.90;99.90;;;;;;4918672;29;20201;-66
2023/06/29 05:19:04;;;;;;;2.03;1.80;;;25.50;99.90;;;;;;4918744;29;20672;-66
2023/06/29 05:21:31;;;;;;;1.80;1.70;;;26.10;99.90;;;;;;4918795;29;20608;-66
2023/06/29 05:23:58;;;;;;;3.50;3.30;;;26.90;99.90;;;;;;4918740;29;20208;-66
2023/06/29 05:26:25;;;;;;;3.25;3.00;;;27.30;99.90;;;;;;4918708;29;20205;-66
2023/06/29 05:28:51;;;;;;;3.13;2.92;;;27.60;96.70;;;;;;4918652;29;20200;-66
2023/06/29 05:31:18;;;;;;;2.67;2.58;;;27.90;94.70;;;;;;4918689;29;20228;-65
2023/06/29 05:33:45;;;;;;;2.90;2.53;;;28.10;92.80;;;;;;4918283;29;20696;-65
2023/06/29 05:36:13;;;;;;;2.63;2.42;;;28.50;92.80;;;;;;4918568;29;20205;-66
2023/06/29 05:38:39;;;;;;;3.47;2.72;;;28.70;89.70;;;;;;4918530;29;20205;-65
2023/06/29 05:41:06;;;;;;;2.85;2.30;;;29.00;87.60;;;;;;4918148;29;20835;-65
2023/06/29 05:43:33;;;;;;;3.35;2.78;;;29.30;82.70;;;;;;4918474;29;20240;-65
2023/06/29 05:46:00;;;;;;;2.85;2.58;;;29.50;83.20;;;;;;4918416;29;20208;-65
2023/06/29 05:48:26;;;;;;;3.72;2.20;;;30.00;78.40;;;;;;4918478;29;20212;-65
2023/06/29 05:50:53;;;;;;;2.40;2.22;;;29.80;77.10;;;;;;4917936;29;20719;-65
2023/06/29 05:53:21;;;;;;;3.67;2.03;;;29.60;73.60;;;;;;4917785;29;20232;-65
2023/06/29 05:55:48;;;;;;;2.00;1.85;;;28.90;76.50;;;;;;4918178;29;20209;-65
2023/06/29 05:58:15;;;;;;;2.05;1.88;;;28.50;83.60;;;;;;4918156;29;20300;-65
2023/06/29 06:00:42;;;;;;;2.85;1.95;;;28.80;84.20;;;;;;4918186;29;20220;-65
2023/06/29 06:03:09;;;;;;;2.60;1.75;;;29.40;82.10;;;;;;4918140;29;20201;-65
2023/06/29 06:05:35;;;;;;;2.10;2.00;;;30.00;74.70;;;;;;4918076;29;20213;-65
2023/06/29 06:08:02;;;;;;;3.00;2.38;;;29.40;70.80;;;;;;4917984;29;20291;-65
2023/06/29 06:10:30;;;;;;;3.05;2.72;;;27.90;76.30;;;;;;4917889;29;20224;-65
2023/06/29 06:12:57;;;;;;;3.53;2.30;;;26.40;91.00;;;;;;4917908;29;20620;-65
2023/06/29 06:15:24;;;;;;;2.53;2.33;;;25.30;99.90;;;;;;4917864;29;20204;-65
2023/06/29 06:17:50;;;;;;;5.28;2.65;;;24.50;99.90;;;;;;4918051;29;20205;-66
2023/06/29 06:20:17;;;;;;;4.03;2.83;;;24.10;99.90;;;;;;4917805;29;20244;-65
2023/06/29 06:22:44;;;;;;;7.00;3.35;;;24.00;99.90;;;;;;4917883;29;20209;-65
2023/06/29 06:25:11;;;;;;;3.35;3.15;;;24.20;99.90;;;;;;4917751;29;20205;-65
2023/06/29 06:27:39;;;;;;;3.17;2.97;;;24.50;99.90;;;;;;4917895;29;20257;-65
2023/06/29 06:30:08;;;;;;;3.20;3.00;;;25.30;99.90;;;;;;4917261;29;20205;-65
2023/06/29 06:32:35;;;;;;;3.70;2.90;;;26.20;99.90;;;;;;4917676;29;20220;-65
2023/06/29 06:35:04;;;;;;;3.67;2.58;;;27.40;99.90;;;;;;4917563;29;20216;-65
2023/06/29 06:37:30;;;;;;;3.90;2.80;;;28.90;92.20;;;;;;4917575;29;20205;-65
2023/06/29 06:39:57;;;;;;;6.35;2.72;;;30.20;84.60;;;;;;4917618;29;20231;-65
2023/06/29 06:42:24;;;;;;;2.00;1.90;;;31.40;76.70;;;;;;4917324;29;20204;-65
2023/06/29 06:44:53;;;;;;;2.33;2.13;;;32.70;71.20;;;;;;4917586;29;20616;-65
2023/06/29 06:47:20;;;;;;;2.33;2.13;;;33.70;68.50;;;;;;4917372;29;20216;-66
2023/06/29 06:49:47;;;;;;;2.10;2.00;;;34.00;66.60;;;;;;4917743;29;20209;-66
2023/06/29 06:52:14;;;;;;;2.28;2.08;;;34.70;66.30;;;;;;4917166;29;20229;-66
2023/06/29 06:54:42;;;;;;;2.35;2.15;;;;;;;;;;4916939;29;20260;-66
2023/06/29 06:57:10;;;;;;;3.58;2.28;;;;;;;;;;4917765;29;20205;-66
2023/06/29 06:59:40;;;;;;;2.35;1.90;;;;;;;;;;4917176;29;20684;-66
2023/06/29 07:02:12;;;;;;;2.22;2.03;;;;;;;;;;4918876;29;20216;-66
2023/06/29 07:04:42;;;;;;;2.20;2.10;;;;;;;;;;4918159;29;20208;-66
2023/06/29 07:07:13;;;;;;;2.00;1.90;;;;;;;;;;4917160;29;20599;-66
2023/06/29 07:09:47;;;;;;;6.50;2.30;;;;;;;;;;4917239;29;20534;-66
2023/06/29 07:12:18;;;;;;;2.03;1.65;;;;;;;;;;4917154;29;20633;-66
2023/06/29 07:14:49;;;;;;;2.10;1.90;;;;;;;;;;4916856;29;20668;-66
2023/06/29 07:17:22;;;;;;;1.70;1.60;;;;;;;;;;4917160;29;20195;-66
2023/06/29 07:19:54;;;;;;;1.50;1.38;;;;;;;;;;4916848;29;20664;-66
2023/06/29 07:22:27;;;;;;;3.13;1.20;;;;;;;;;;4917127;29;20193;-66
2023/06/29 07:25:02;;;;;;;1.60;1.50;;;;;;;;;;4917194;29;20193;-66
2023/06/29 07:27:42;;;;;;;1.80;1.50;;;;;;;;;;4917058;29;20195;-66
2023/06/29 07:30:25;;;;;;;1.23;1.20;;;;;;;;;;4917005;29;20208;-66
2023/06/29 07:33:20;;;;;;;1.45;1.25;;;;;;;;;;4917020;29;20197;-66
2023/06/29 07:36:07;;;;;;;2.25;1.20;;;;;;;;;;4917140;29;20189;-67
2023/06/29 07:38:48;;;;;;;1.70;1.00;;;;;;;;;;4917043;29;20188;-67
2023/06/29 07:41:40;;;;;;;1.20;1.20;;;;;;;;;;4917201;29;20232;-67
2023/06/29 07:44:38;;;;;;;1.27;1.20;;;;;;;;;;4920172;29;20197;-66
2023/06/29 07:47:43;;;;;;;1.13;1.10;;;;;;;;;;4920493;29;20322;-66
2023/06/29 07:50:36;;;;;;;1.40;1.30;;;;;;;;;;4920430;29;20570;-66
2023/06/29 07:53:34;;;;;;;1.27;1.15;;;;;;;;;;4920001;29;20564;-66
2023/06/29 07:56:30;;;;;;;1.48;1.48;;;;;;;;;;4920092;29;20703;-66
2023/06/29 07:59:39;;;;;;;0.93;0.93;;;;;;;;;;4920241;29;20209;-66
2023/06/29 08:02:50;;;;;;;2.13;1.00;;;;;;;;;;4920164;29;20228;-66
2023/06/29 08:06:02;;;;;;;1.27;1.17;;;;;;;;;;4920222;29;20247;-66
2023/06/29 08:09:14;;;;;;;2.35;1.27;;;;;;;;;;4919859;29;20692;-66
2023/06/29 08:12:27;;;;;;;3.42;1.15;;;;;;;;;;4920100;29;20228;-66
2023/06/29 08:15:34;;;;;;;1.90;1.17;;;;;;;;;;4920068;29;20209;-66
2023/06/29 08:18:01;;;;;;;1.42;1.33;;;;;;;;;;4920195;29;20228;-66
2023/06/29 08:20:32;;;;;;;1.52;1.48;;;;;;;;;;4920265;29;20276;-66
2023/06/29 08:22:59;;;;;;;1.95;1.27;;;;;;;;;;4930171;29;20200;-66
2023/06/29 08:25:26;;;;;;;1.05;1.05;;;;;;;;;;4929008;29;20209;-66
2023/06/29 08:27:53;;;;;;;2.80;1.27;;;;;;;;;;4923657;29;20208;-66
2023/06/29 08:30:20;;;;;;;2.80;1.25;;;;;;;;;;4920170;29;20229;-66
2023/06/29 08:32:48;;;;;;;1.17;1.17;;;;;;;;;;4920082;29;20205;-66
2023/06/29 08:35:15;;;;;;;1.17;1.10;;;;;;;;;;4919588;29;20665;-66
2023/06/29 08:37:43;;;;;;;2.53;1.20;;;;;;;;;;4919633;29;20256;-66
2023/06/29 08:40:11;;;;;;;1.50;1.50;;;;;;;;;;4919508;29;20209;-66
2023/06/29 08:42:39;;;;;;;1.25;1.25;;;;;;;;;;4919109;29;20641;-66
2023/06/29 08:45:06;;;;;;;1.40;1.30;;;;;;;;;;4919117;29;20669;-66
2023/06/29 08:47:34;;;;;;;1.10;1.10;;;;;;;;;;4919425;29;20216;-66
2023/06/29 08:50:02;;;;;;;1.27;1.27;;;;;;;;;;4919438;29;20296;-66
2023/06/29 08:52:31;;;;;;;1.10;1.10;;;;;;;;;;4919306;29;20189;-66
2023/06/29 08:55:00;;;;;;;1.88;1.23;;;;;;;;;;4918816;29;20197;-66
2023/06/29 08:57:28;;;;;;;1.30;1.20;;;;;;;;;;4918829;29;20719;-66
2023/06/29 08:59:55;;;;;;;2.17;1.38;;;;;;;;;;4919096;29;20208;-66
2023/06/29 09:02:22;;;;;;;1.33;1.10;;;;;;;;;;4919069;29;20229;-66
2023/06/29 09:04:49;;;;;;;1.30;1.20;;;;;;;;;;4918997;29;20201;-66
2023/06/29 09:07:16;;;;;;;1.13;1.10;;;;;;;;;;4919043;29;20204;-66
2023/06/29 09:09:44;;;;;;;1.20;1.10;;;;;;;;;;4919021;29;20265;-65
2023/06/29 09:12:12;;;;;;;1.00;1.00;;;;;;;;;;4918647;29;20221;-65
2023/06/29 09:14:43;;;;;;;1.25;1.20;;;;;;;;;;4918597;29;20669;-66
2023/06/29 09:17:14;;;;;;;0.98;0.98;;;;;;;;;;4918959;29;20185;-66
2023/06/29 09:19:43;;;;;;;1.15;1.15;;;;;;;;;;4919065;29;20205;-66
2023/06/29 09:22:10;;;;;;;1.42;1.33;;;;;;;;;;4918714;29;20228;-66
2023/06/29 09:24:39;;;;;;;1.38;1.23;;;;;;;;;;4918689;29;20232;-66
2023/06/29 09:27:06;;;;;;;1.60;1.60;;;;;;;;;;4919273;29;20209;-66
2023/06/29 09:29:37;;;;;;;1.40;1.33;;;;;;;;;;4918638;29;20205;-67
2023/06/29 09:32:04;;;;;;;1.45;1.35;;;;;;;;;;4918322;29;20672;-66
2023/06/29 09:34:31;;;;;;;1.65;1.52;;;;;;;;;;4918487;29;20213;-66
2023/06/29 09:36:58;;;;;;;1.80;1.70;;;;;;;;;;4918170;29;20574;-66
2023/06/29 09:39:26;;;;;;;1.40;1.40;;;;;;;;;;4918531;29;20190;-66
2023/06/29 09:41:54;;;;;;;2.15;1.60;;;;;;;;;;4918354;29;20320;-66
2023/06/29 09:44:24;;;;;;;1.98;1.88;;;;;;;;;;4918357;29;20205;-66
2023/06/29 09:46:53;;;;;;;2.03;1.90;;;;;;;;;;4918416;29;20613;-67
2023/06/29 09:49:20;;;;;;;1.75;1.65;;;;;;;;;;4918482;29;20201;-67
2023/06/29 09:51:49;;;;;;;2.15;2.05;;;;;;;;;;4918209;29;20224;-66
2023/06/29 09:54:17;;;;;;;1.90;1.80;;;;;;;;;;4918101;29;20633;-66
2023/06/29 09:56:44;;;;;;;3.22;2.92;;;;;;;;;;4918262;29;20668;-66
2023/06/29 09:59:12;;;;;;;2.70;2.50;;;;;;;;;;4918485;29;20259;-66
2023/06/29 10:01:40;;;;;;;4.80;3.40;;;;;;;;;;4917753;29;20833;-66
2023/06/29 10:04:08;;;;;;;3.35;3.15;;;;;;;;;;4917777;29;20688;-65
2023/06/29 10:06:39;;;;;;;7.80;3.30;;;;;;;;;;4918158;29;20672;-65
2023/06/29 10:09:07;;;;;;;4.07;2.72;;;;;;;;;;4921609;29;20197;-66
2023/06/29 10:11:36;;;;;;;3.60;3.33;;;;;;;;;;4921323;29;20225;-67
2023/06/29 10:14:04;;;;;;;4.82;3.40;;;;;;;;;;4921210;29;20236;-66
2023/06/29 10:16:34;;;;;;;3.08;2.78;;;;;;;;;;4921167;29;20285;-66
2023/06/29 10:19:06;;;;;;;3.42;3.17;;;;;;;;;;4921037;29;20236;-67
2023/06/29 10:21:35;;;;;;;2.95;2.75;;;;;;;;;;4921320;29;20224;-67
2023/06/29 10:24:04;;;;;;;2.70;2.17;;;;;;;;;;4921523;29;20212;-66
2023/06/29 10:26:31;;;;;;;3.00;2.70;;;;;;;;;;4921344;29;20620;-66
2023/06/29 10:28:58;;;;;;;2.30;2.15;;;;;;;;;;4921303;29;20208;-67
2023/06/29 10:31:32;;;;;;;2.38;2.20;;;;;;;;;;4922103;29;20255;-66
2023/06/29 10:33:59;;;;;;;2.30;2.20;;;;;;;;;;4919727;29;20193;-66
2023/06/29 10:36:27;;;;;;;2.38;2.28;;;;;;;;;;4917539;29;20201;-66
2023/06/29 10:38:55;;;;;;;2.90;2.65;;;;;;;;;;4917247;29;20672;-67
2023/06/29 10:41:26;;;;;;;3.03;2.83;;;;;;;;;;4917493;29;20229;-67
2023/06/29 10:43:56;;;;;;;4.95;3.85;;;;;;;;;;4917526;29;20237;-67
2023/06/29 10:46:38;;;;;;;6.43;5.20;;;;;;;;;;4917457;29;20287;-67
2023/06/29 10:49:08;;;;;;;8.35;6.40;;;;;;;;;;4917280;29;20211;-66
2023/06/29 10:51:35;;;;;;;8.18;6.93;;;;;;;;;;4917671;29;20311;-66
2023/06/29 10:54:05;;;;;;;9.57;7.03;;;;;;;;;;4917648;29;20213;-66
2023/06/29 10:56:32;;;;;;;9.20;7.22;;;;;;;;;;4917524;29;20212;-66
2023/06/29 10:58:59;;;;;;;10.68;7.80;;;;;;;;;;4917417;29;20216;-66
2023/06/29 11:01:27;;;;;;;8.45;7.38;;;;;;;;;;4917207;29;20228;-66
2023/06/29 11:03:54;;;;;;;12.25;8.48;;;;;;;;;;4917240;29;20216;-66
2023/06/29 11:06:21;;;;;;;10.52;8.90;;;;;;;;;;4916884;29;20547;-66
2023/06/29 11:08:49;;;;;;;8.80;7.90;;;;;;;;;;4917263;29;20201;-66
2023/06/29 11:11:17;;;;;;;9.98;8.23;;;;;;;;;;4917401;29;20232;-66
2023/06/29 11:13:45;;;;;;;9.48;7.95;;;;;;;;;;4917848;29;20216;-67
2023/06/29 11:16:13;;;;;;;10.25;8.00;;;;;;;;;;4917677;29;20215;-66
2023/06/29 11:18:48;;;;;;;9.20;8.10;;;;;;;;;;4921294;29;20213;-66
2023/06/29 11:21:15;;;;;;;8.25;7.10;;;;;;;;;;4921111;29;20235;-66
2023/06/29 11:23:50;;;;;;;7.25;6.40;;;;;;;;;;4920897;29;20228;-66
2023/06/29 11:26:20;;;;;;;6.20;5.60;;;;;;;;;;4920958;29;20305;-66
2023/06/29 11:28:48;;;;;;;6.25;5.28;;;;;;;;;;4920947;29;20196;-66
2023/06/29 11:31:16;;;;;;;5.57;4.53;;;;;;;;;;4920388;29;20633;-66
2023/06/29 11:33:49;;;;;;;5.15;4.65;;;;;;;;;;4920370;29;20672;-66
2023/06/29 11:36:16;;;;;;;5.35;4.85;;;;;;;;;;4920694;29;20200;-66
2023/06/29 11:38:43;;;;;;;4.40;4.00;;;;;;;;;;4920673;29;20205;-66
2023/06/29 11:41:10;;;;;;;4.70;4.18;;;;;;;;;;4920519;29;20234;-66
2023/06/29 11:43:38;;;;;;;4.47;4.07;;;;;;;;;;4920249;29;20227;-66
2023/06/29 11:46:05;;;;;;;4.53;4.13;;;;;;;;;;4920500;29;20201;-67
2023/06/29 11:48:32;;;;;;;4.88;4.47;;;;;;;;;;4920156;29;20557;-67
2023/06/29 11:51:47;;;;;;;5.15;4.43;;;;;;;;;;4920509;29;20231;-67
2023/06/29 11:55:01;;;;;;;5.32;4.82;;;;;;;;;;4920083;29;20216;-67
2023/06/29 11:58:15;;;;;;;4.85;4.45;;;;;;;;;;4920455;29;20204;-67
2023/06/29 12:01:31;;;;;;;6.40;5.40;;;;;;;;;;4920186;29;20225;-67
2023/06/29 12:04:22;;;;;;;6.10;5.57;;;;;;;;;;4920186;29;20201;-67
2023/06/29 12:07:02;;;;;;;7.85;6.32;;;;;;;;;;4920246;29;20224;-67
2023/06/29 12:09:58;;;;;;;8.02;6.40;;;;;;;;;;4920254;29;20201;-67
2023/06/29 12:12:27;;;;;;;6.32;5.72;;;;;;;;;;4920096;29;20213;-66
2023/06/29 12:14:54;;;;;;;6.03;5.53;;;;;;;;;;4919996;29;20209;-67
2023/06/29 12:17:24;;;;;;;7.32;6.25;;;;;;;;;;4919952;29;20202;-66
2023/06/29 12:19:52;;;;;;;7.78;6.07;;;;;;;;;;4919938;29;20212;-65
2023/06/29 12:22:19;;;;;;;8.23;6.82;;;;;;;;;;4919861;29;20212;-65
2023/06/29 12:24:50;;;;;;;8.82;7.78;;;;;;;;;;4919478;29;20201;-66
2023/06/29 12:27:17;;;;;;;8.73;7.25;;;;;;;;;;4919665;29;20213;-66
2023/06/29 12:29:44;;;;;;;8.18;7.18;;;;;;;;;;4918844;29;20211;-67
2023/06/29 12:32:11;;;;;;;8.05;7.25;;;;;;;;;;4919711;29;20234;-67
2023/06/29 12:34:40;;;;;;;7.45;6.65;;;;;;;;;;4919662;29;20216;-66
2023/06/29 12:37:07;;;;;;;8.00;7.20;;;;;;;;;;4919335;29;20542;-66
2023/06/29 12:39:34;;;;;;;8.45;6.63;;;;;;;;;;4919194;29;20577;-66
2023/06/29 12:42:01;;;;;;;8.90;7.35;;;;;;;;;;4919440;29;20228;-66
2023/06/29 12:44:28;;;;;;;9.88;7.07;;;;;;;;;;4919473;29;20212;-66
2023/06/29 12:46:56;;;;;;;7.28;6.50;;;;;;;;;;4919358;29;20277;-66
2023/06/29 12:49:23;;;;;;;7.10;6.40;;;;;;;;;;4919346;29;20245;-66
2023/06/29 12:51:51;;;;;;;8.15;7.28;;;;;;;;;;4919249;29;20228;-66
2023/06/29 12:54:18;;;;;;;8.27;7.00;;;;;;;;;;4918856;29;20612;-66
2023/06/29 12:56:47;;;;;;;7.88;7.07;;;;;;;;;;4919442;29;20256;-66
2023/06/29 12:59:14;;;;;;;8.48;7.57;;;;;;;;;;4919234;29;20200;-66
2023/06/29 13:01:41;;;;;;;8.85;7.72;;;;;;;;;;4919164;29;20251;-66
2023/06/29 13:04:08;;;;;;;7.50;6.75;;;;;;;;;;4919245;29;20208;-67
2023/06/29 13:06:35;;;;;;;7.88;7.07;;;;;;;;;;4919068;29;20221;-66
2023/06/29 13:09:03;;;;;;;8.55;7.65;;;;;;;;;;4919629;29;20208;-66
2023/06/29 13:11:30;;;;;;;8.60;7.72;;;;;;;;;;4919051;29;20228;-67
2023/06/29 13:13:58;;;;;;;9.63;8.05;;;;;;;;;;4918738;29;20576;-67
2023/06/29 13:16:25;;;;;;;9.52;8.07;;;;;;;;;;4918961;29;20197;-67
2023/06/29 13:18:52;;;;;;;10.70;9.35;;;;;;;;;;4919010;29;20208;-67
2023/06/29 13:21:20;;;;;;;9.68;7.88;;;;;;;;;;4918667;29;20224;-67
2023/06/29 13:23:47;;;;;;;10.90;9.18;;;;;;;;;;4918951;29;20212;-67
2023/06/29 13:26:15;;;;;;;10.60;9.15;;;;;;;;;;4918423;29;20727;-67
2023/06/29 13:28:42;;;;;;;11.23;9.80;;;;;;;;;;4918304;29;20550;-67
2023/06/29 13:31:09;;;;;;;12.10;9.23;;;;;;;;;;4918654;29;20228;-67
2023/06/29 13:33:36;;;;;;;10.38;9.18;;;;;;;;;;4918356;29;20673;-67
2023/06/29 13:36:04;;;;;;;12.85;10.35;;;;;;;;;;4918581;29;20209;-67
2023/06/29 13:38:31;;;;;;;13.38;9.98;;;;;;;;;;4918494;29;20299;-67
2023/06/29 13:40:58;;;;;;;12.27;10.30;;;;;;;;;;4917961;29;20229;-67
2023/06/29 13:43:27;;;;;;;12.70;10.63;;;;;;;;;;4918093;29;20595;-67
2023/06/29 13:45:54;;;;;;;12.93;10.90;;;;;;;;;;4918346;29;20216;-67
2023/06/29 13:48:21;;;;;;;13.88;10.98;;;;;;;;;;4917991;29;20704;-67
2023/06/29 13:50:48;;;;;;;14.05;11.35;;;;;;;;;;4918153;29;20252;-67
2023/06/29 13:53:16;;;;;;;14.05;11.68;;;;;;;;;;4917942;29;20216;-67
2023/06/29 13:55:44;;;;;;;15.57;11.65;;;;;;;;;;4918252;29;20205;-67
2023/06/29 13:58:12;;;;;;;14.27;11.18;;;;;;;;;;4918394;29;20214;-67
2023/06/29 14:00:40;;;;;;;13.27;10.30;;;;;;;;;;4918142;29;20225;-67
2023/06/29 14:03:07;;;;;;;12.18;10.23;;;;;;;;;;4918132;29;20208;-67
2023/06/29 14:05:34;;;;;;;12.10;9.60;;;;;;;;;;4918127;29;20284;-67
2023/06/29 14:08:01;;;;;;;10.27;9.00;;;;;;;;;;4918085;29;20221;-67
2023/06/29 14:10:28;;;;;;;11.75;9.60;;;;;;;;;;4918013;29;20225;-67
2023/06/29 14:12:55;;;;;;;9.95;8.43;;;;;;;;;;4918135;29;20216;-67
2023/06/29 14:15:22;;;;;;;9.02;7.82;;;;;;;;;;4919122;29;20201;-67
2023/06/29 14:17:51;;;;;;;10.75;8.63;;;;;;;;;;4922070;29;20197;-67
2023/06/29 14:20:18;;;;;;;11.45;8.85;;;;;;;;;;4920437;29;20704;-67
2023/06/29 14:22:45;;;;;;;9.65;8.60;;;;;;;;;;4920030;29;20213;-67
2023/06/29 14:25:12;;;;;;;9.18;7.85;;;;;;;;;;4917790;29;20201;-67
2023/06/29 14:27:39;;;;;;;8.35;7.45;;;;;;;;;;4917566;29;20268;-67
2023/06/29 14:30:08;;;;;;;6.25;5.53;;;;;;;;;;4918265;29;20280;-67
2023/06/29 14:32:35;;;;;;;5.82;5.32;;;;;;;;;;4917434;29;20216;-67
2023/06/29 14:35:03;;;;;;;6.00;5.35;;;;;;;;;;4917669;29;20204;-67
2023/06/29 14:37:31;;;;;;;4.93;4.43;;;;;;;;;;4917653;29;20208;-67
2023/06/29 14:40:00;;;;;;;4.45;4.00;;;;;;;;;;4917386;29;20205;-67
2023/06/29 14:42:27;;;;;;;4.15;3.85;;;;;;;;;;4919626;29;20204;-67
2023/06/29 14:44:54;;;;;;;4.03;3.78;;;;;;;;;;4917714;29;20294;-67
2023/06/29 14:47:21;;;;;;;4.15;3.75;;;;;;;;;;4917486;29;20562;-66
2023/06/29 14:49:48;;;;;;;3.95;3.63;;;;;;;;;;4917909;29;20212;-67
2023/06/29 14:52:17;;;;;;;4.45;4.05;;;;;;;;;;4917021;29;20232;-67
2023/06/29 14:54:44;;;;;;;4.15;3.85;;;;;;;;;;4917401;29;20217;-67
2023/06/29 14:57:11;;;;;;;3.33;3.13;;;;;;;;;;4917502;29;20201;-67
2023/06/29 14:59:38;;;;;;;4.03;3.72;;;;;;;;;;4917510;29;20205;-67
2023/06/29 15:02:05;;;;;;;3.88;3.58;;;;;;;;;;4917249;29;20260;-67
2023/06/29 15:04:32;;;;;;;3.92;3.60;;;;;;;;;;4917254;29;20204;-67
2023/06/29 15:06:59;;;;;;;3.45;3.15;;;;;;;;;;4917180;29;20228;-67
2023/06/29 15:09:28;;;;;;;3.17;2.97;;;;;;;;;;4917239;29;20193;-67
2023/06/29 15:11:57;;;;;;;3.63;3.33;;;;;;;;;;4917191;29;20256;-67
2023/06/29 15:14:25;;;;;;;3.22;3.03;;;;;;;;;;4917228;29;20232;-67
2023/06/29 15:16:52;;;;;;;3.75;3.45;;;;;;;;;;4917280;29;20205;-67
2023/06/29 15:19:19;;;;;;;3.63;3.33;;;;;;;;;;4917191;29;20204;-67
2023/06/29 15:21:46;;;;;;;3.35;3.15;;;;;;;;;;4917019;29;20587;-67
2023/06/29 15:24:13;;;;;;;3.10;2.90;;;;;;;;;;4917223;29;20208;-67
2023/06/29 15:26:42;;;;;;;2.97;2.78;;;;;;;;;;4917033;29;20231;-67
2023/06/29 15:29:09;;;;;;;3.30;3.00;;;;;;;;;;4917089;29;20201;-67
2023/06/29 15:31:36;;;;;;;3.00;2.83;;;;;;;;;;4917029;29;20232;-66
2023/06/29 15:34:03;;;;;;;3.58;2.95;;;;;;;;;;4917098;29;20213;-66
2023/06/29 15:36:31;;;;;;;4.60;3.22;;;;;;;;;;4917022;29;20217;-66
2023/06/29 15:38:58;;;;;;;3.05;2.85;;;;;;;;;;4917061;29;20236;-67
2023/06/29 15:41:25;;;;;;;3.00;2.88;;;;;;;;;;4916937;29;20592;-67
2023/06/29 15:43:58;;;;;;;3.05;2.95;;;;;;;;;;4916975;29;20201;-67
2023/06/29 15:46:25;;;;;;;3.00;2.85;;;;;;;;;;4917458;29;20283;-67
2023/06/29 15:48:52;;;;;;;3.00;2.80;;;;;;;;;;4917015;29;20209;-67
2023/06/29 15:51:20;;;;;;;2.70;2.50;;;;;;;;;;4917043;29;20256;-67
2023/06/29 15:53:47;;;;;;;2.72;2.63;;;;;;;;;;4916957;29;20235;-67
2023/06/29 15:56:15;;;;;;;2.70;2.50;;;;;;;;;;4917202;29;20205;-66
2023/06/29 15:58:42;;;;;;;2.35;2.20;;;;;;;;;;4917016;29;20201;-66
2023/06/29 16:01:10;;;;;;;2.28;2.17;;;;;;;;;;4916817;29;20229;-67
2023/06/29 16:03:39;;;;;;;2.60;2.50;;;;;;;;;;4917758;29;20209;-67
2023/06/29 16:06:06;;;;;;;2.35;2.22;;;;;;;;;;4920238;29;20204;-66
2023/06/29 16:08:33;;;;;;;2.35;2.20;;;;;;;;;;4920146;29;20221;-66
2023/06/29 16:11:00;;;;;;;2.60;2.40;;;;;;;;;;4920234;29;20235;-67
2023/06/29 16:13:27;;;;;;;2.75;2.55;;;;;;;;;;4920138;29;20204;-66
2023/06/29 16:15:54;;;;;;;2.15;2.10;;;;;;;;;;4920044;29;20550;-67
2023/06/29 16:18:22;;;;;;;2.55;2.45;;;;;;;;;;4919948;29;20204;-67
2023/06/29 16:20:49;;;;;;;2.10;2.00;;;;;;;;;;4920065;29;20224;-67
2023/06/29 16:23:16;;;;;;;2.25;2.15;;;;;;;;;;4919994;29;20208;-67
2023/06/29 16:25:43;;;;;;;2.67;2.47;;;;;;;;;;4919662;29;20609;-68
2023/06/29 16:28:10;;;;;;;2.33;2.22;;;;;;;;;;4919368;29;20224;-67
2023/06/29 16:30:37;;;;;;;2.05;1.90;;;;;;;;;;4919682;29;20224;-67
2023/06/29 16:33:04;;;;;;;2.42;2.33;;;;;;;;;;4919805;29;20211;-67
2023/06/29 16:35:33;;;;;;;2.17;2.08;;;;;;;;;;4919721;29;20201;-68
2023/06/29 16:38:00;;;;;;;2.72;2.53;;;;;;;;;;4919622;29;20207;-67
2023/06/29 16:40:27;;;;;;;2.80;2.60;;;;;;;;;;4919573;29;20224;-67
2023/06/29 16:42:54;;;;;;;2.80;2.70;;;;;;;;;;4919628;29;20208;-67
2023/06/29 16:45:21;;;;;;;3.95;3.10;;;;;;;;;;4919746;29;20213;-67
2023/06/29 16:47:48;;;;;;;4.75;4.07;;;;;;;;;;4919355;29;20217;-67
2023/06/29 16:50:15;;;;;;;3.58;3.30;;;;;;;;;;4919259;29;20260;-67
2023/06/29 16:52:44;;;;;;;3.65;3.35;;;;;;;;;;4919837;29;20209;-67
2023/06/29 16:55:11;;;;;;;3.55;3.30;;;;;;;;;;4919927;29;20196;-67
2023/06/29 16:57:38;;;;;;;3.03;2.83;;;;;;;;;;4919554;29;20201;-67
2023/06/29 17:00:07;;;;;;;3.50;3.22;;;;;;;;;;4919402;29;20201;-67
2023/06/29 17:02:35;;;;;;;3.72;3.42;;;;;;;;;;4919292;29;20209;-67
2023/06/29 17:05:02;;;;;;;4.60;4.18;;;;;;;;;;4919404;29;20201;-67
2023/06/29 17:07:29;;;;;;;5.35;4.75;;;;;;;;;;4918814;29;20225;-67
2023/06/29 17:09:57;;;;;;;4.97;3.80;;;;;;;;;;4919234;29;20260;-67
2023/06/29 17:12:24;;;;;;;4.10;3.70;;;;;;;;;;4919189;29;20208;-67
2023/06/29 17:14:51;;;;;;;3.55;3.25;;;;;;;;;;4918449;29;20209;-67
2023/06/29 17:17:18;;;;;;;3.72;3.42;;;;;;;;;;4919156;29;20212;-67
2023/06/29 17:19:48;;;;;;;5.07;3.63;;;;;;;;;;4919216;29;20201;-66
2023/06/29 17:22:16;;;;;;;3.30;3.10;;;;;;;;;;4918680;29;20596;-66
2023/06/29 17:24:43;;;;;;;3.20;3.00;;;;;;;;;;4919083;29;20237;-66
2023/06/29 17:27:11;;;;;;;2.95;2.85;;;;;;;;;;4918934;29;20209;-66
2023/06/29 17:29:39;;;;;;;3.00;2.80;;;;;;;;;;4919093;29;20204;-66
2023/06/29 17:32:06;;;;;;;3.50;2.97;;;;;;;;;;4918496;29;20268;-66
2023/06/29 17:34:33;;;;;;;3.38;3.15;;;;;;;;;;4919164;29;20201;-66
2023/06/29 17:37:02;;;;;;;3.20;3.00;;;;;;;;;;4919229;29;20209;-66
2023/06/29 17:39:29;;;;;;;5.40;3.40;;;;;;;;;;4920671;29;20213;-67
2023/06/29 17:41:56;;;;;;;5.43;4.75;;;;;;;;;;4923457;29;20225;-67
2023/06/29 17:44:25;;;;;;;8.20;5.55;;;;;;;;;;4922972;29;20268;-66
2023/06/29 17:46:52;;;;;;;5.32;4.80;;;;;;;;;;4923454;29;20212;-67
2023/06/29 17:49:21;;;;;;;5.38;4.50;;;;;;;;;;4920151;29;20229;-68
2023/06/29 17:51:48;;;;;;;5.53;4.15;;;;;;;;;;4918365;29;20252;-68
2023/06/29 17:54:15;;;;;;;4.15;3.75;;;;;;;;;;4917964;29;20220;-68
2023/06/29 17:56:42;;;;;;;3.90;3.60;;;;;;;;;;4918231;29;20216;-67
2023/06/29 17:59:09;;;;;;;5.68;4.00;;;;;;;;;;4918170;29;20636;-67
2023/06/29 18:01:37;;;;;;;4.20;3.80;;;;;;;;;;4917874;29;20705;-67
2023/06/29 18:04:04;;;;;;;4.57;4.18;;;;;;;;;;4917873;29;20201;-66
2023/06/29 18:06:31;;;;;;;3.90;3.60;;;;;;;;;;4918117;29;20212;-67
2023/06/29 18:08:58;;;;;;;4.55;4.10;;;;;;;;;;4917775;29;20229;-66
2023/06/29 18:11:26;;;;;;;5.10;4.60;;;;;;;;;;4917884;29;20228;-69
2023/06/29 18:13:53;;;;;;;5.53;5.00;;;;;;;;;;4917582;29;20669;-66
2023/06/29 18:16:20;;;;;;;5.47;5.00;;;;;;;;;;4917530;29;20193;-65
2023/06/29 18:18:48;;;;;;;4.32;3.95;;;;;;;;;;4917399;29;20691;-66
2023/06/29 18:21:16;;;;;;;4.15;3.75;;;;;;;;;;4917547;29;20276;-66
2023/06/29 18:23:43;;;;;;;4.00;3.70;;;;;;;;;;4917865;29;20588;-66